Time;durP1;ratioP1;P1;durP2;ratioP2;P2;SDS_P1;SDS_P2;PMS_P1;PMS_P2;Temp;Humidity;BMP_temperature;BMP_pressure;BME280_temperature;BME280_humidity;BME280_pressure;Samples;Min_cycle;Max_cycle;Signal;HPM_P1;HPM_P2
2024/02/29 00:00:14;;;;;;;98.70;28.40;;;7.50;1.00;;;;;;4385522;28;657584;-78
2024/02/29 00:03:01;;;;;;;99.40;28.83;;;7.60;1.00;;;;;;4399966;28;657738;-78
2024/02/29 00:05:49;;;;;;;89.37;29.50;;;7.60;1.00;;;;;;4383316;28;657880;-78
2024/02/29 00:08:36;;;;;;;99.17;30.50;;;7.60;1.00;;;;;;4414973;28;657001;-78
2024/02/29 00:11:24;;;;;;;107.30;32.20;;;7.60;1.00;;;;;;4384328;28;656915;-77
2024/02/29 00:14:12;;;;;;;102.97;29.30;;;7.60;1.00;;;;;;4394025;28;658307;-78
2024/02/29 00:17:00;;;;;;;104.82;29.60;;;7.60;1.00;;;;;;4382775;28;657923;-77
2024/02/29 00:19:47;;;;;;;104.43;31.13;;;7.60;1.00;;;;;;4375200;28;657881;-78
2024/02/29 00:22:35;;;;;;;114.33;30.83;;;7.60;1.00;;;;;;4399715;28;658476;-78
2024/02/29 00:25:22;;;;;;;108.47;30.80;;;7.60;1.00;;;;;;4392757;28;658011;-77
2024/02/29 00:28:10;;;;;;;113.70;32.50;;;7.60;1.00;;;;;;4395294;28;658221;-78
2024/02/29 00:30:59;;;;;;;111.70;30.10;;;7.60;1.00;;;;;;4407633;28;658073;-78
2024/02/29 00:33:46;;;;;;;108.57;30.77;;;7.60;1.00;;;;;;4400717;28;657776;-78
2024/02/29 00:36:33;;;;;;;105.63;30.87;;;7.60;1.00;;;;;;4378273;28;658817;-78
2024/02/29 00:39:21;;;;;;;124.27;32.07;;;7.50;1.00;;;;;;4404057;28;658102;-78
2024/02/29 00:42:08;;;;;;;117.10;30.97;;;7.50;1.00;;;;;;4376846;28;657590;-78
2024/02/29 00:44:55;;;;;;;126.27;32.50;;;7.50;1.00;;;;;;4409090;28;658504;-78
2024/02/29 00:47:44;;;;;;;119.90;32.33;;;7.50;1.00;;;;;;4372455;28;657852;-78
2024/02/29 00:50:33;;;;;;;116.63;31.93;;;7.50;1.00;;;;;;4397220;28;657062;-78
2024/02/29 00:53:20;;;;;;;117.53;30.73;;;7.50;3.90;;;;;;4367306;28;658377;-77
2024/02/29 00:56:08;;;;;;;119.30;31.83;;;7.50;40.90;;;;;;4393908;28;657642;-77
2024/02/29 00:58:55;;;;;;;130.83;33.47;;;7.50;43.70;;;;;;4426336;28;659166;-78
2024/02/29 01:01:43;;;;;;;118.93;31.70;;;7.50;59.10;;;;;;4405403;28;658961;-77
2024/02/29 01:04:31;;;;;;;116.00;30.50;;;7.50;87.50;;;;;;4423762;28;659262;-78
2024/02/29 01:07:19;;;;;;;118.37;32.40;;;7.50;80.00;;;;;;4398215;28;659519;-78
2024/02/29 01:10:08;;;;;;;116.87;30.67;;;7.50;66.10;;;;;;4391837;28;659451;-77
2024/02/29 01:12:56;;;;;;;118.17;32.50;;;7.50;74.30;;;;;;4377781;28;659093;-78
2024/02/29 01:15:45;;;;;;;128.33;31.37;;;7.50;80.50;;;;;;4375788;28;658735;-78
2024/02/29 01:18:32;;;;;;;125.50;31.37;;;7.50;90.30;;;;;;4410236;28;657942;-78
2024/02/29 01:21:20;;;;;;;117.40;31.50;;;7.50;98.80;;;;;;4382322;28;658920;-77
2024/02/29 01:24:08;;;;;;;117.20;29.60;;;7.50;99.90;;;;;;4395054;28;658492;-78
2024/02/29 01:26:55;;;;;;;105.57;29.90;;;7.60;99.90;;;;;;4422444;28;659740;-78
2024/02/29 01:29:43;;;;;;;115.93;29.33;;;7.60;99.90;;;;;;4408158;28;658388;-78
2024/02/29 01:32:30;;;;;;;117.60;29.80;;;7.60;81.40;;;;;;4410347;28;659048;-78
2024/02/29 01:35:18;;;;;;;119.35;30.40;;;7.50;76.50;;;;;;4383041;28;659044;-77
2024/02/29 01:38:06;;;;;;;123.57;31.13;;;7.50;79.40;;;;;;4406726;28;659570;-78
2024/02/29 01:40:53;;;;;;;128.60;31.67;;;7.50;83.30;;;;;;4392774;28;658494;-77
2024/02/29 01:43:49;;;;;;;118.87;31.17;;;7.50;93.40;;;;;;4401934;28;659024;-78
2024/02/29 01:46:36;;;;;;;114.37;29.93;;;7.50;96.20;;;;;;4383501;28;658674;-78
2024/02/29 01:49:23;;;;;;;117.22;30.60;;;7.50;98.40;;;;;;4392578;28;658737;-78
2024/02/29 01:52:11;;;;;;;127.40;30.23;;;7.50;99.90;;;;;;4410519;28;658917;-78
2024/02/29 01:55:00;;;;;;;119.77;28.90;;;7.50;99.90;;;;;;4409310;28;659222;-77
2024/02/29 01:57:48;;;;;;;97.50;26.00;;;7.60;99.90;;;;;;4413180;28;659101;-77
2024/02/29 02:00:35;;;;;;;100.67;26.50;;;7.60;99.90;;;;;;4414933;28;658627;-77
2024/02/29 02:03:22;;;;;;;95.33;26.90;;;7.50;99.90;;;;;;4402702;28;658898;-77
2024/02/29 02:06:10;;;;;;;82.87;24.73;;;7.50;99.90;;;;;;4418845;28;657704;-77
2024/02/29 02:08:57;;;;;;;87.97;23.93;;;7.50;99.90;;;;;;4418182;28;657574;-77
2024/02/29 02:11:46;;;;;;;83.97;25.03;;;7.60;99.90;;;;;;4419504;28;658493;-77
2024/02/29 02:14:33;;;;;;;85.80;24.00;;;7.50;99.90;;;;;;4398086;28;657841;-77
2024/02/29 02:17:21;;;;;;;89.10;24.27;;;7.50;99.90;;;;;;4390591;28;658438;-77
2024/02/29 02:20:13;;;;;;;91.73;25.07;;;7.50;99.90;;;;;;4383415;28;657477;-77
2024/02/29 02:23:01;;;;;;;76.80;23.37;;;7.50;99.90;;;;;;4398007;28;658542;-77
2024/02/29 02:25:48;;;;;;;73.17;21.23;;;7.60;99.90;;;;;;4391635;28;657976;-77
2024/02/29 02:28:35;;;;;;;66.93;19.97;;;7.70;99.90;;;;;;4416187;28;658468;-77
2024/02/29 02:31:22;;;;;;;63.50;20.00;;;7.60;91.70;;;;;;4388551;28;657819;-77
2024/02/29 02:34:10;;;;;;;61.47;18.70;;;7.60;62.90;;;;;;4414443;28;658371;-77
2024/02/29 02:36:59;;;;;;;50.20;17.37;;;7.50;33.80;;;;;;4419709;28;658115;-76
2024/02/29 02:39:46;;;;;;;53.83;17.43;;;7.40;24.10;;;;;;4421602;28;657891;-77
2024/02/29 02:42:33;;;;;;;49.83;17.43;;;7.40;26.80;;;;;;4400456;28;657976;-77
2024/02/29 02:45:21;;;;;;;50.67;16.93;;;7.50;2.30;;;;;;4432019;28;658843;-78
2024/02/29 02:48:08;;;;;;;47.77;15.73;;;7.40;1.00;;;;;;4392174;28;656568;-78
2024/02/29 02:50:56;;;;;;;42.07;15.57;;;7.30;1.00;;;;;;4420726;28;657616;-78
2024/02/29 02:53:44;;;;;;;41.03;15.03;;;7.30;1.00;;;;;;4358343;28;656716;-78
2024/02/29 02:56:31;;;;;;;49.83;16.47;;;7.30;1.00;;;;;;4380360;28;657089;-78
2024/02/29 02:59:19;;;;;;;46.83;16.93;;;7.30;1.00;;;;;;4350975;28;657441;-78
2024/02/29 03:02:06;;;;;;;47.03;16.47;;;7.30;1.00;;;;;;4394066;28;657227;-78
2024/02/29 03:04:53;;;;;;;42.43;15.30;;;7.20;1.00;;;;;;4369301;28;656853;-78
2024/02/29 03:07:40;;;;;;;43.53;15.07;;;7.30;1.00;;;;;;4394277;28;657484;-78
2024/02/29 03:10:29;;;;;;;38.70;16.10;;;7.20;1.00;;;;;;4373962;28;656467;-78
2024/02/29 03:13:16;;;;;;;35.20;14.47;;;7.30;1.00;;;;;;4405415;28;656913;-78
2024/02/29 03:16:04;;;;;;;32.73;14.60;;;7.30;1.00;;;;;;4388914;28;656717;-77
2024/02/29 03:18:51;;;;;;;32.53;14.43;;;7.30;1.00;;;;;;4411744;28;657325;-78
2024/02/29 03:21:38;;;;;;;31.30;13.67;;;7.30;1.00;;;;;;4392103;28;656462;-77
2024/02/29 03:24:25;;;;;;;31.67;14.03;;;7.20;1.00;;;;;;4412036;28;657371;-78
2024/02/29 03:27:14;;;;;;;29.87;14.10;;;7.20;1.00;;;;;;4369537;28;656379;-77
2024/02/29 03:30:02;;;;;;;31.83;14.93;;;7.20;1.00;;;;;;4391953;28;656587;-78
2024/02/29 03:32:49;;;;;;;30.17;14.07;;;7.20;1.00;;;;;;4368636;28;657648;-78
2024/02/29 03:35:36;;;;;;;28.13;12.37;;;7.20;1.00;;;;;;4401874;28;657171;-78
2024/02/29 03:38:24;;;;;;;30.33;13.87;;;7.20;1.00;;;;;;4389518;28;656481;-78
2024/02/29 03:41:11;;;;;;;32.80;14.10;;;7.20;1.00;;;;;;4403946;28;657217;-78
2024/02/29 03:44:00;;;;;;;27.63;13.17;;;7.20;1.00;;;;;;4359173;28;656871;-77
2024/02/29 03:46:47;;;;;;;32.83;14.90;;;7.10;1.00;;;;;;4395366;28;656114;-78
2024/02/29 03:49:34;;;;;;;32.60;13.60;;;7.10;1.00;;;;;;4373398;28;657307;-78
2024/02/29 03:52:22;;;;;;;31.27;14.53;;;7.10;1.00;;;;;;4387057;28;656717;-78
2024/02/29 03:55:11;;;;;;;33.63;15.77;;;7.20;1.00;;;;;;4409825;28;657835;-78
2024/02/29 03:57:58;;;;;;;33.90;15.67;;;7.10;99.90;;;;;;4401992;28;656630;-78
2024/02/29 04:00:48;;;;;;;36.40;16.67;;;7.10;99.90;;;;;;4404435;28;658463;-78
2024/02/29 04:03:35;;;;;;;33.33;15.60;;;7.10;99.90;;;;;;4400935;28;658065;-78
2024/02/29 04:06:22;;;;;;;33.00;16.10;;;7.10;99.90;;;;;;4414430;28;657747;-78
2024/02/29 04:09:10;;;;;;;32.10;15.97;;;7.20;99.90;;;;;;4413583;28;657833;-78
2024/02/29 04:11:58;;;;;;;36.23;17.23;;;7.20;99.90;;;;;;4402886;28;657557;-77
2024/02/29 04:14:45;;;;;;;40.43;16.93;;;7.20;99.90;;;;;;4427828;28;657732;-77
2024/02/29 04:17:34;;;;;;;37.53;17.87;;;7.10;99.90;;;;;;4419213;28;657350;-77
2024/02/29 04:20:21;;;;;;;39.87;19.00;;;7.10;99.90;;;;;;4426969;28;657367;-78
2024/02/29 04:23:08;;;;;;;41.53;19.30;;;7.20;99.90;;;;;;4390525;28;658150;-78
2024/02/29 04:25:56;;;;;;;41.50;18.77;;;7.00;99.90;;;;;;4424179;28;658558;-78
2024/02/29 04:28:43;;;;;;;57.73;22.30;;;7.00;99.90;;;;;;4396715;28;657635;-78
2024/02/29 04:31:30;;;;;;;63.07;24.20;;;7.00;99.90;;;;;;4429465;28;658524;-78
2024/02/29 04:34:19;;;;;;;65.13;23.57;;;6.90;99.90;;;;;;4399987;28;658014;-77
2024/02/29 04:37:06;;;;;;;64.67;23.10;;;7.00;1.00;;;;;;4403254;28;657243;-78
2024/02/29 04:39:53;;;;;;;58.13;23.83;;;7.00;1.00;;;;;;4404359;28;656507;-78
2024/02/29 04:42:40;;;;;;;59.43;23.80;;;7.00;1.00;;;;;;4428904;28;657237;-78
2024/02/29 04:45:28;;;;;;;56.47;23.77;;;7.00;1.00;;;;;;4403766;28;656890;-78
2024/02/29 04:48:15;;;;;;;54.23;23.33;;;7.00;1.00;;;;;;4409780;28;657833;-77
2024/02/29 04:51:05;;;;;;;48.50;21.70;;;7.00;1.00;;;;;;4399771;28;657429;-77
2024/02/29 04:53:52;;;;;;;47.07;22.30;;;7.00;1.00;;;;;;4407584;28;655948;-78
2024/02/29 04:56:39;;;;;;;47.67;21.13;;;7.10;1.00;;;;;;4407734;28;656722;-78
2024/02/29 04:59:26;;;;;;;52.07;21.27;;;7.10;1.00;;;;;;4420640;28;656741;-78
2024/02/29 05:02:14;;;;;;;48.27;21.63;;;7.00;1.00;;;;;;4403974;28;656561;-78
2024/02/29 05:05:01;;;;;;;52.60;22.00;;;7.10;1.00;;;;;;4425172;28;656991;-78
2024/02/29 05:07:50;;;;;;;52.77;22.67;;;7.10;1.00;;;;;;4401636;28;657135;-78
2024/02/29 05:10:37;;;;;;;50.50;22.10;;;7.10;1.00;;;;;;4428512;28;656102;-78
2024/02/29 05:13:24;;;;;;;51.57;22.33;;;7.10;1.00;;;;;;4404496;28;656678;-78
2024/02/29 05:16:11;;;;;;;50.93;21.40;;;7.10;1.00;;;;;;4424231;28;655942;-78
2024/02/29 05:18:58;;;;;;;47.78;20.92;;;7.10;1.00;;;;;;4406325;28;657059;-78
2024/02/29 05:21:46;;;;;;;47.90;21.23;;;7.00;1.00;;;;;;4424866;28;656637;-78
2024/02/29 05:24:35;;;;;;;54.30;21.30;;;7.00;1.00;;;;;;4402210;28;656937;-77
2024/02/29 05:27:24;;;;;;;53.57;21.37;;;7.00;1.00;;;;;;4405130;28;656992;-77
2024/02/29 05:30:14;;;;;;;46.07;20.73;;;7.10;1.00;;;;;;4426937;28;656768;-78
2024/02/29 05:33:01;;;;;;;47.73;19.57;;;7.10;1.00;;;;;;4408757;28;656886;-78
2024/02/29 05:35:51;;;;;;;47.63;19.27;;;7.10;1.00;;;;;;4406475;28;657027;-77
2024/02/29 05:38:38;;;;;;;42.53;18.67;;;7.10;1.00;;;;;;4403807;28;656841;-78
2024/02/29 05:41:27;;;;;;;41.47;18.10;;;7.10;1.00;;;;;;4431396;28;657807;-78
2024/02/29 05:44:14;;;;;;;39.03;16.80;;;7.10;99.90;;;;;;4407629;28;656239;-78
2024/02/29 05:47:02;;;;;;;44.87;18.07;;;7.10;99.90;;;;;;4427650;28;657663;-78
2024/02/29 05:49:50;;;;;;;47.70;17.93;;;7.00;99.90;;;;;;4406591;28;658285;-78
2024/02/29 05:52:40;;;;;;;43.50;18.90;;;7.00;99.90;;;;;;4429461;28;657456;-78
2024/02/29 05:55:27;;;;;;;46.83;20.13;;;7.00;1.00;;;;;;4419217;28;658075;-77
2024/02/29 05:58:17;;;;;;;47.33;19.70;;;7.00;1.00;;;;;;4427521;28;656719;-78
2024/02/29 06:01:06;;;;;;;46.40;20.30;;;7.00;1.00;;;;;;4409196;28;656537;-78
2024/02/29 06:03:55;;;;;;;53.30;22.17;;;7.00;1.00;;;;;;4412684;28;656652;-77
2024/02/29 06:06:42;;;;;;;53.33;22.53;;;7.10;1.00;;;;;;4426466;28;656109;-77
2024/02/29 06:09:30;;;;;;;53.93;22.63;;;7.10;1.00;;;;;;4435047;28;656789;-78
2024/02/29 06:12:18;;;;;;;55.47;21.37;;;7.10;1.00;;;;;;4429056;28;657154;-78
2024/02/29 06:15:08;;;;;;;52.90;20.93;;;7.20;1.00;;;;;;4418949;28;657440;-78
2024/02/29 06:17:56;;;;;;;55.57;21.40;;;7.30;1.00;;;;;;4404120;28;657889;-78
2024/02/29 06:20:43;;;;;;;58.73;21.53;;;7.20;1.00;;;;;;4406314;28;656793;-77
2024/02/29 06:23:30;;;;;;;62.53;22.00;;;7.20;1.00;;;;;;4428708;28;657113;-77
2024/02/29 06:26:17;;;;;;;78.90;22.67;;;7.20;1.00;;;;;;4408373;28;656750;-77
2024/02/29 06:29:05;;;;;;;72.23;24.00;;;7.30;1.00;;;;;;4433939;28;656947;-77
2024/02/29 06:31:54;;;;;;;69.07;22.77;;;7.30;1.00;;;;;;4418555;28;656793;-77
2024/02/29 06:34:41;;;;;;;68.97;21.97;;;7.30;1.00;;;;;;4423864;28;656722;-77
2024/02/29 06:37:28;;;;;;;69.20;22.17;;;7.30;1.00;;;;;;4404947;28;656944;-77
2024/02/29 06:40:16;;;;;;;65.23;21.67;;;7.30;1.00;;;;;;4426340;28;656620;-77
2024/02/29 06:43:03;;;;;;;76.57;22.07;;;7.40;1.00;;;;;;4395728;28;657482;-76
2024/02/29 06:45:51;;;;;;;79.03;24.17;;;7.30;1.00;;;;;;4428398;28;656698;-77
2024/02/29 06:48:40;;;;;;;77.03;24.03;;;7.30;1.00;;;;;;4397870;28;656702;-77
2024/02/29 06:51:28;;;;;;;74.57;23.57;;;7.40;1.00;;;;;;4416561;28;657061;-77
2024/02/29 06:54:15;;;;;;;77.57;24.93;;;7.40;1.00;;;;;;4414916;28;657341;-77
2024/02/29 06:57:03;;;;;;;81.43;26.27;;;7.40;1.00;;;;;;4392777;28;658457;-77
2024/02/29 06:59:50;;;;;;;79.33;25.20;;;7.50;19.90;;;;;;4406461;28;656993;-77
2024/02/29 07:02:38;;;;;;;67.73;22.97;;;7.70;18.10;;;;;;4387508;28;657857;-77
2024/02/29 07:05:27;;;;;;;79.23;23.47;;;7.70;1.00;;;;;;4404034;28;658976;-77
2024/02/29 07:08:14;;;;;;;90.60;26.13;;;7.70;1.00;;;;;;4362090;28;657230;-77
2024/02/29 07:11:01;;;;;;;95.73;24.90;;;7.70;1.00;;;;;;4380184;28;656191;-77
2024/02/29 07:13:50;;;;;;;99.47;27.87;;;7.80;1.00;;;;;;4382364;28;656903;-78
2024/02/29 07:16:38;;;;;;;126.20;31.27;;;7.90;1.00;;;;;;4383328;28;657161;-77
2024/02/29 07:19:26;;;;;;;120.60;32.83;;;7.90;1.00;;;;;;4406046;28;657607;-77
2024/02/29 07:22:14;;;;;;;97.77;26.10;;;8.00;1.00;;;;;;4385808;28;657488;-77
2024/02/29 07:25:03;;;;;;;200.40;48.27;;;8.10;1.00;;;;;;4414062;28;656597;-77
2024/02/29 07:27:50;;;;;;;98.10;26.93;;;8.10;1.00;;;;;;4383361;28;657979;-77
2024/02/29 07:30:38;;;;;;;109.97;28.90;;;8.00;99.90;;;;;;4385047;28;656660;-77
2024/02/29 07:33:25;;;;;;;109.00;27.57;;;7.90;99.90;;;;;;4402438;28;659777;-77
2024/02/29 07:36:12;;;;;;;108.97;27.80;;;7.90;1.00;;;;;;4401783;28;658772;-77
2024/02/29 07:39:02;;;;;;;106.67;27.30;;;7.90;1.00;;;;;;4406631;28;657923;-77
2024/02/29 07:41:49;;;;;;;137.93;30.97;;;7.90;1.00;;;;;;4375764;28;658683;-77
2024/02/29 07:44:36;;;;;;;122.43;29.83;;;7.90;1.00;;;;;;4386057;28;658847;-77
2024/02/29 07:47:24;;;;;;;130.67;33.93;;;8.00;1.00;;;;;;4369305;28;657482;-76
2024/02/29 07:50:11;;;;;;;133.97;32.80;;;8.00;1.00;;;;;;4390002;28;658501;-77
2024/02/29 07:52:58;;;;;;;128.67;31.33;;;8.00;1.00;;;;;;4374510;28;657572;-77
2024/02/29 07:55:47;;;;;;;132.90;32.43;;;8.10;1.00;;;;;;4386232;28;658113;-77
2024/02/29 07:58:34;;;;;;;151.97;39.43;;;8.10;1.00;;;;;;4363465;28;658045;-77
2024/02/29 08:01:21;;;;;;;116.33;31.67;;;8.10;1.00;;;;;;4385199;28;658004;-77
2024/02/29 08:04:09;;;;;;;141.87;36.43;;;8.20;1.00;;;;;;4368407;28;657789;-77
2024/02/29 08:06:56;;;;;;;144.60;35.47;;;8.10;1.00;;;;;;4381903;28;657609;-77
2024/02/29 08:09:44;;;;;;;166.10;41.40;;;8.20;1.00;;;;;;4357083;28;657983;-77
2024/02/29 08:12:33;;;;;;;131.18;35.97;;;8.20;1.00;;;;;;4394162;28;657470;-77
2024/02/29 08:15:20;;;;;;;169.93;43.63;;;8.30;1.00;;;;;;4385039;28;657909;-77
2024/02/29 08:18:08;;;;;;;150.37;39.13;;;8.30;1.00;;;;;;4391402;28;658011;-77
2024/02/29 08:20:55;;;;;;;144.90;36.33;;;8.40;1.00;;;;;;4390855;28;657887;-77
2024/02/29 08:23:42;;;;;;;130.17;35.00;;;8.50;1.00;;;;;;4396149;28;658007;-77
2024/02/29 08:26:30;;;;;;;139.83;37.30;;;8.50;99.90;;;;;;4405679;28;657924;-77
2024/02/29 08:29:19;;;;;;;128.93;35.50;;;8.60;1.00;;;;;;4381087;28;658592;-77
2024/02/29 08:32:07;;;;;;;118.50;33.33;;;8.50;99.90;;;;;;4402331;28;657401;-77
2024/02/29 08:34:56;;;;;;;122.50;32.17;;;8.50;99.90;;;;;;4382698;28;659021;-78
2024/02/29 08:37:44;;;;;;;110.97;32.40;;;8.60;99.90;;;;;;4385094;28;658699;-77
2024/02/29 08:40:31;;;;;;;111.60;33.07;;;8.60;33.30;;;;;;4396477;28;659157;-77
2024/02/29 08:43:19;;;;;;;123.10;33.37;;;8.70;1.00;;;;;;4377008;28;658559;-77
2024/02/29 08:46:08;;;;;;;128.27;37.50;;;8.70;1.00;;;;;;4401882;28;657589;-77
2024/02/29 08:48:56;;;;;;;133.27;39.10;;;8.80;1.00;;;;;;4372092;28;658479;-77
2024/02/29 08:51:43;;;;;;;110.57;32.63;;;8.90;1.00;;;;;;4369982;28;657485;-77
2024/02/29 08:54:30;;;;;;;106.67;31.90;;;8.80;1.00;;;;;;4379315;28;658517;-77
2024/02/29 08:57:18;;;;;;;106.75;32.95;;;8.90;1.00;;;;;;4380579;28;657538;-77
2024/02/29 09:00:07;;;;;;;94.73;30.73;;;9.10;1.00;;;;;;4393347;28;658317;-77
2024/02/29 09:02:56;;;;;;;78.83;26.50;;;9.10;1.00;;;;;;4366697;28;657024;-78
2024/02/29 09:05:44;;;;;;;115.50;34.07;;;9.20;1.00;;;;;;4376792;28;657104;-77
2024/02/29 09:08:31;;;;;;;135.33;42.70;;;9.30;1.00;;;;;;4396418;28;657009;-77
2024/02/29 09:11:19;;;;;;;86.97;29.53;;;9.50;1.00;;;;;;4379015;28;657452;-77
2024/02/29 09:14:06;;;;;;;78.67;28.43;;;9.70;99.90;;;;;;4401663;28;656640;-77
2024/02/29 09:16:53;;;;;;;78.55;28.33;;;9.80;1.00;;;;;;4377699;28;657962;-77
2024/02/29 09:19:42;;;;;;;77.20;29.13;;;10.00;99.90;;;;;;4406967;28;657068;-77
2024/02/29 09:22:30;;;;;;;68.00;26.17;;;10.00;70.10;;;;;;4363510;28;660581;-77
2024/02/29 09:25:18;;;;;;;72.50;26.60;;;10.10;1.00;;;;;;4391494;28;659450;-77
2024/02/29 09:28:05;;;;;;;73.53;28.23;;;10.10;93.90;;;;;;4356838;28;658306;-77
2024/02/29 09:30:53;;;;;;;70.03;27.17;;;10.30;75.50;;;;;;4390174;28;658931;-77
2024/02/29 09:33:41;;;;;;;60.90;23.30;;;10.50;1.00;;;;;;4398517;28;659270;-77
2024/02/29 09:36:31;;;;;;;58.23;24.40;;;10.70;1.00;;;;;;4378412;28;657256;-77
2024/02/29 09:39:18;;;;;;;60.17;24.40;;;10.70;1.00;;;;;;4387922;28;657806;-77
2024/02/29 09:42:05;;;;;;;69.28;25.52;;;10.90;1.00;;;;;;4412418;28;658143;-78
2024/02/29 09:44:53;;;;;;;62.97;25.63;;;11.00;1.00;;;;;;4377897;28;657909;-77
2024/02/29 09:47:40;;;;;;;55.07;23.23;;;11.10;1.00;;;;;;4410774;28;657902;-77
2024/02/29 09:50:27;;;;;;;74.23;28.83;;;11.20;99.90;;;;;;4394959;28;657250;-78
2024/02/29 09:53:18;;;;;;;73.60;30.47;;;11.30;1.00;;;;;;4411104;28;659159;-77
2024/02/29 09:56:05;;;;;;;63.90;25.97;;;11.50;1.00;;;;;;4379753;28;658009;-78
2024/02/29 09:58:53;;;;;;;52.33;24.57;;;11.60;1.00;;;;;;4407646;28;658993;-77
2024/02/29 10:01:40;;;;;;;64.70;28.00;;;11.70;99.90;;;;;;4406108;28;657490;-78
2024/02/29 10:04:27;;;;;;;57.20;26.40;;;12.00;99.90;;;;;;4375077;28;658700;-78
2024/02/29 10:07:15;;;;;;;59.83;25.27;;;12.20;1.00;;;;;;4401057;28;659126;-78
2024/02/29 10:10:04;;;;;;;50.63;23.50;;;12.50;1.00;;;;;;4399755;28;658413;-77
2024/02/29 10:12:55;;;;;;;55.43;23.20;;;12.80;56.80;;;;;;4409935;28;657301;-77
2024/02/29 10:15:42;;;;;;;46.77;23.17;;;12.90;1.00;;;;;;4384286;28;658568;-78
2024/02/29 10:18:32;;;;;;;53.63;22.30;;;13.00;99.90;;;;;;4424003;28;658208;-78
2024/02/29 10:21:20;;;;;;;44.63;21.63;;;12.90;1.00;;;;;;4399411;28;659049;-78
2024/02/29 10:24:07;;;;;;;49.07;21.47;;;12.90;99.90;;;;;;4414830;28;657598;-78
2024/02/29 10:27:02;;;;;;;46.27;22.37;;;13.00;1.00;;;;;;4392072;28;659151;-77
2024/02/29 10:29:49;;;;;;;45.33;22.17;;;13.00;1.00;;;;;;4370866;28;657769;-78
2024/02/29 10:32:37;;;;;;;43.47;20.07;;;13.70;99.90;;;;;;4417771;28;657577;-78
2024/02/29 10:35:26;;;;;;;42.87;20.10;;;14.40;1.00;;;;;;4390652;28;660070;-78
2024/02/29 10:38:14;;;;;;;48.33;20.93;;;14.20;1.00;;;;;;4386424;28;657764;-77
2024/02/29 10:41:02;;;;;;;45.33;19.63;;;14.20;1.00;;;;;;4428454;28;657280;-78
2024/02/29 10:43:51;;;;;;;37.47;19.00;;;15.00;99.90;;;;;;4395963;28;658763;-77
2024/02/29 10:46:38;;;;;;;49.33;20.97;;;15.40;35.10;;;;;;4388209;28;658643;-77
2024/02/29 10:49:28;;;;;;;49.20;23.20;;;14.80;1.00;;;;;;4418407;28;659158;-78
2024/02/29 10:52:19;;;;;;;49.07;23.03;;;14.50;99.90;;;;;;4397086;28;658385;-78
2024/02/29 10:55:09;;;;;;;45.23;21.20;;;14.90;95.60;;;;;;4390539;28;658815;-78
2024/02/29 10:58:01;;;;;;;46.73;19.87;;;14.30;1.00;;;;;;4394357;28;659288;-77
2024/02/29 11:00:50;;;;;;;48.65;22.27;;;14.10;1.00;;;;;;4371653;28;658090;-78
2024/02/29 11:03:38;;;;;;;51.25;22.52;;;14.20;30.00;;;;;;4395501;28;657439;-78
2024/02/29 11:06:25;;;;;;;50.10;22.73;;;15.20;99.90;;;;;;4400691;28;659200;-78
2024/02/29 11:09:13;;;;;;;54.33;24.93;;;15.30;1.00;;;;;;4391029;28;659002;-77
2024/02/29 11:12:11;;;;;;;51.10;24.30;;;15.70;1.00;;;;;;4409335;28;658543;-77
2024/02/29 11:14:58;;;;;;;51.20;23.00;;;15.30;1.00;;;;;;4364485;28;658068;-77
2024/02/29 11:17:48;;;;;;;48.50;23.10;;;15.90;1.00;;;;;;4417022;28;658888;-77
2024/02/29 11:20:35;;;;;;;50.13;23.97;;;15.60;99.90;;;;;;4385579;28;658588;-77
2024/02/29 11:23:26;;;;;;;47.47;22.87;;;14.90;1.00;;;;;;4407521;28;659635;-77
2024/02/29 11:26:13;;;;;;;46.17;22.50;;;15.10;1.00;;;;;;4386939;28;657612;-77
2024/02/29 11:29:11;;;;;;;47.90;23.13;;;14.40;1.00;;;;;;4411393;28;658104;-77
2024/02/29 11:31:59;;;;;;;61.70;25.83;;;14.00;99.90;;;;;;4355072;28;658498;-77
2024/02/29 11:34:47;;;;;;;91.57;38.23;;;14.30;99.90;;;;;;4416648;28;658932;-79
2024/02/29 11:37:35;;;;;;;59.63;24.43;;;15.10;1.00;;;;;;4386605;28;658750;-77
2024/02/29 11:40:22;;;;;;;53.23;24.30;;;15.30;1.00;;;;;;4405156;28;658113;-78
2024/02/29 11:43:10;;;;;;;45.80;22.57;;;15.30;1.00;;;;;;4390525;28;657955;-78
2024/02/29 11:46:07;;;;;;;53.40;25.80;;;15.70;99.90;;;;;;4408554;28;657923;-77
2024/02/29 11:48:55;;;;;;;58.40;25.03;;;15.20;99.90;;;;;;4390828;28;658960;-77
2024/02/29 11:51:44;;;;;;;55.00;25.87;;;14.60;1.00;;;;;;4407254;28;658898;-77
2024/02/29 11:54:31;;;;;;;53.07;25.93;;;14.20;1.00;;;;;;4397186;28;657486;-77
2024/02/29 11:57:20;;;;;;;62.17;26.20;;;13.90;99.90;;;;;;4386641;28;657600;-77
2024/02/29 12:00:09;;;;;;;54.37;25.70;;;14.10;99.90;;;;;;4388120;28;658835;-77
2024/02/29 12:02:56;;;;;;;55.20;25.07;;;14.40;1.00;;;;;;4399361;28;659386;-77
2024/02/29 12:05:43;;;;;;;54.60;25.53;;;14.50;1.00;;;;;;4382124;28;657992;-77
2024/02/29 12:08:32;;;;;;;51.97;24.07;;;14.80;24.70;;;;;;4405206;28;658451;-77
2024/02/29 12:11:19;;;;;;;53.77;23.60;;;15.50;1.00;;;;;;4373793;28;658595;-78
2024/02/29 12:14:08;;;;;;;54.93;25.00;;;16.00;1.00;;;;;;4387167;28;657475;-77
2024/02/29 12:16:55;;;;;;;51.70;25.70;;;14.90;1.00;;;;;;4398282;28;658224;-77
2024/02/29 12:19:43;;;;;;;56.80;23.70;;;15.70;99.90;;;;;;4403915;28;657358;-77
2024/02/29 12:22:30;;;;;;;51.40;24.10;;;15.70;99.90;;;;;;4406906;28;660101;-78
2024/02/29 12:25:21;;;;;;;49.47;23.60;;;15.80;33.10;;;;;;4382255;28;659295;-77
2024/02/29 12:28:08;;;;;;;54.13;24.57;;;16.70;1.00;;;;;;4370129;28;658696;-77
2024/02/29 12:30:55;;;;;;;48.67;22.80;;;17.00;99.90;;;;;;4386275;28;657752;-78
2024/02/29 12:33:43;;;;;;;49.97;23.90;;;17.00;99.90;;;;;;4371868;28;658976;-77
2024/02/29 12:36:31;;;;;;;52.80;24.17;;;17.20;99.90;;;;;;4413285;28;659901;-78
2024/02/29 12:39:20;;;;;;;53.00;24.03;;;16.90;99.90;;;;;;4376252;28;658628;-77
2024/02/29 12:42:08;;;;;;;46.57;22.00;;;17.10;99.90;;;;;;4407748;28;658775;-78
2024/02/29 12:44:56;;;;;;;48.40;23.50;;;17.00;99.90;;;;;;4387173;28;659343;-77
2024/02/29 12:47:43;;;;;;;51.10;23.37;;;17.60;99.90;;;;;;4387851;28;658700;-77
2024/02/29 12:50:30;;;;;;;47.67;22.47;;;17.90;99.90;;;;;;4412209;28;659411;-77
2024/02/29 12:53:17;;;;;;;52.50;24.13;;;17.80;59.40;;;;;;4401590;28;658948;-77
2024/02/29 12:56:05;;;;;;;51.10;23.80;;;17.80;98.70;;;;;;4410222;28;658545;-76
2024/02/29 12:58:54;;;;;;;44.67;22.87;;;18.10;99.90;;;;;;4406630;28;658417;-77
2024/02/29 13:01:41;;;;;;;46.27;22.93;;;17.90;99.90;;;;;;4411875;28;659314;-77
2024/02/29 13:04:28;;;;;;;44.93;22.50;;;17.70;99.90;;;;;;4410338;28;658598;-76
2024/02/29 13:07:15;;;;;;;60.47;26.77;;;18.00;1.00;;;;;;4421990;28;659520;-77
2024/02/29 13:10:03;;;;;;;48.57;22.80;;;17.70;99.90;;;;;;4407324;28;658561;-77
2024/02/29 13:12:50;;;;;;;48.63;22.30;;;18.40;1.00;;;;;;4404440;28;658970;-77
2024/02/29 13:15:39;;;;;;;46.67;21.97;;;18.70;1.00;;;;;;4385031;28;657524;-77
2024/02/29 13:18:26;;;;;;;46.07;21.80;;;18.50;1.00;;;;;;4404847;28;658027;-77
2024/02/29 13:21:13;;;;;;;48.23;22.13;;;18.90;1.00;;;;;;4391270;28;657734;-78
2024/02/29 13:24:01;;;;;;;43.87;22.13;;;19.40;1.00;;;;;;4404532;28;657615;-74
2024/02/29 13:26:48;;;;;;;47.77;21.83;;;19.50;1.00;;;;;;4371059;28;658067;-76
2024/02/29 13:29:35;;;;;;;50.33;22.20;;;19.80;1.00;;;;;;4413671;28;658987;-78
2024/02/29 13:32:24;;;;;;;55.03;24.77;;;19.40;1.00;;;;;;4361540;28;657852;-76
2024/02/29 13:35:11;;;;;;;50.83;23.13;;;17.90;1.00;;;;;;4422459;28;658917;-77
2024/02/29 13:37:58;;;;;;;46.08;21.77;;;17.70;99.90;;;;;;4387189;28;657507;-77
2024/02/29 13:40:46;;;;;;;47.93;21.83;;;18.90;1.00;;;;;;4400509;28;659393;-77
2024/02/29 13:43:33;;;;;;;40.13;21.27;;;19.20;1.00;;;;;;4379308;28;657490;-76
2024/02/29 13:46:20;;;;;;;42.80;21.23;;;19.80;1.00;;;;;;4409314;28;658915;-76
2024/02/29 13:49:09;;;;;;;47.73;22.90;;;19.70;1.00;;;;;;4391738;28;657603;-76
2024/02/29 13:51:57;;;;;;;44.20;21.50;;;19.30;1.00;;;;;;4429014;28;657951;-77
2024/02/29 13:54:45;;;;;;;47.17;23.17;;;19.60;1.00;;;;;;4395047;28;657265;-77
2024/02/29 13:57:32;;;;;;;50.67;23.53;;;19.90;1.00;;;;;;4398976;28;657568;-76
2024/02/29 14:00:20;;;;;;;47.30;23.03;;;19.70;1.00;;;;;;4421392;28;657633;-76
2024/02/29 14:03:08;;;;;;;47.27;23.47;;;19.40;1.00;;;;;;4382646;28;657742;-76
2024/02/29 14:05:57;;;;;;;56.10;25.20;;;19.30;1.00;;;;;;4404525;28;658602;-77
2024/02/29 14:08:44;;;;;;;48.20;23.33;;;19.50;1.00;;;;;;4378412;28;658537;-76
2024/02/29 14:11:31;;;;;;;49.23;23.77;;;19.20;1.00;;;;;;4403101;28;657200;-77